Time;durP1;ratioP1;P1;durP2;ratioP2;P2;SDS_P1;SDS_P2;PMS_P1;PMS_P2;Temp;Humidity;BMP_temperature;BMP_pressure;BME280_temperature;BME280_humidity;BME280_pressure;Samples;Min_cycle;Max_cycle;Signal;HPM_P1;HPM_P2
2021/03/17 00:00:16;;;;;;;4.70;3.42;;;4.60;99.90;;;;;;5030292;28;20074;-69
2021/03/17 00:02:42;;;;;;;5.82;3.80;;;4.60;99.90;;;;;;5034685;28;20434;-68
2021/03/17 00:05:08;;;;;;;5.40;4.07;;;4.60;99.90;;;;;;5050251;28;20029;-68
2021/03/17 00:07:34;;;;;;;6.93;4.13;;;4.60;99.90;;;;;;5053955;28;20479;-67
2021/03/17 00:10:01;;;;;;;5.25;3.72;;;4.60;99.90;;;;;;5053668;28;20028;-68
2021/03/17 00:12:26;;;;;;;6.50;3.95;;;4.60;99.90;;;;;;5053764;28;20549;-69
2021/03/17 00:14:52;;;;;;;4.85;3.40;;;4.60;99.90;;;;;;5053648;28;20024;-67
2021/03/17 00:17:18;;;;;;;4.25;3.63;;;4.60;99.90;;;;;;5053772;28;20029;-68
2021/03/17 00:19:43;;;;;;;5.00;3.33;;;4.50;99.90;;;;;;5054141;28;20025;-68
2021/03/17 00:22:09;;;;;;;5.38;3.58;;;4.50;99.90;;;;;;5054175;28;20142;-67
2021/03/17 00:24:36;;;;;;;3.97;3.20;;;4.50;99.90;;;;;;5052819;28;20032;-67
2021/03/17 00:27:02;;;;;;;5.03;3.60;;;4.50;99.90;;;;;;5053687;28;20025;-67
2021/03/17 00:29:28;;;;;;;5.05;3.50;;;4.60;99.90;;;;;;5053887;28;20009;-69
2021/03/17 00:31:53;;;;;;;4.53;3.28;;;4.50;99.90;;;;;;5054170;28;20075;-67
2021/03/17 00:34:19;;;;;;;5.30;3.65;;;4.50;99.90;;;;;;5052926;28;20032;-69
2021/03/17 00:36:45;;;;;;;4.43;3.10;;;4.40;99.90;;;;;;5053963;28;20079;-68
2021/03/17 00:39:10;;;;;;;3.10;2.80;;;4.40;99.90;;;;;;5053732;28;20032;-67
2021/03/17 00:41:36;;;;;;;3.78;3.38;;;4.30;99.90;;;;;;5053388;28;20491;-69
2021/03/17 00:44:02;;;;;;;4.00;3.38;;;4.20;99.90;;;;;;5035800;28;20029;-67
2021/03/17 00:46:27;;;;;;;3.40;2.90;;;4.20;99.90;;;;;;5033561;28;20057;-68
2021/03/17 00:48:53;;;;;;;5.80;2.72;;;4.10;99.90;;;;;;5033316;28;20128;-69
2021/03/17 00:51:19;;;;;;;3.40;3.10;;;4.10;99.90;;;;;;5033317;28;20021;-69
2021/03/17 00:53:44;;;;;;;4.65;3.17;;;4.20;99.90;;;;;;5042027;28;20048;-68
2021/03/17 00:56:10;;;;;;;3.30;3.00;;;4.20;99.90;;;;;;5053470;28;20115;-69
2021/03/17 00:58:35;;;;;;;4.50;3.03;;;4.20;99.90;;;;;;5053585;28;20092;-69
2021/03/17 01:01:01;;;;;;;4.93;2.97;;;4.20;99.90;;;;;;5053064;28;20406;-69
2021/03/17 01:03:27;;;;;;;3.67;3.38;;;4.20;99.90;;;;;;5051698;28;20029;-69
2021/03/17 01:05:52;;;;;;;5.30;3.13;;;4.20;99.90;;;;;;5052988;28;20498;-67
2021/03/17 01:08:18;;;;;;;2.90;2.70;;;4.10;99.90;;;;;;5052948;28;20036;-69
2021/03/17 01:10:46;;;;;;;3.15;2.85;;;3.90;99.90;;;;;;5051514;28;20028;-67
2021/03/17 01:13:12;;;;;;;3.03;2.83;;;3.90;99.90;;;;;;5051779;28;20032;-68
2021/03/17 01:15:38;;;;;;;7.30;3.90;;;3.80;99.90;;;;;;5052863;28;20021;-67
2021/03/17 01:18:05;;;;;;;4.68;3.15;;;3.80;99.90;;;;;;5053245;28;20025;-69
2021/03/17 01:20:31;;;;;;;3.88;3.50;;;3.80;99.90;;;;;;5042670;28;20037;-68
2021/03/17 01:22:58;;;;;;;3.40;3.10;;;3.90;99.90;;;;;;5052222;28;20107;-67
2021/03/17 01:25:36;;;;;;;3.80;3.38;;;3.80;99.90;;;;;;5051538;28;20035;-67
2021/03/17 01:28:04;;;;;;;4.70;3.80;;;3.70;99.90;;;;;;5034397;28;20478;-68
2021/03/17 01:30:36;;;;;;;5.13;3.63;;;3.70;99.90;;;;;;5034231;28;20026;-67
2021/03/17 01:33:02;;;;;;;3.78;3.30;;;3.70;99.90;;;;;;5033850;28;20037;-68
2021/03/17 01:35:28;;;;;;;3.17;2.75;;;3.80;99.90;;;;;;5033527;28;20113;-68
2021/03/17 01:37:54;;;;;;;3.25;3.00;;;3.70;99.90;;;;;;5032756;28;20068;-68
2021/03/17 01:40:25;;;;;;;3.78;3.13;;;3.70;99.90;;;;;;5040136;28;20023;-68
2021/03/17 01:42:52;;;;;;;4.10;3.00;;;3.80;99.90;;;;;;5052298;28;20082;-68
2021/03/17 01:45:18;;;;;;;3.33;2.97;;;3.60;99.90;;;;;;5052248;28;20036;-68
2021/03/17 01:47:46;;;;;;;3.83;3.42;;;3.70;99.90;;;;;;5051695;28;20031;-68
2021/03/17 01:50:15;;;;;;;4.20;3.05;;;3.70;99.90;;;;;;5052433;28;20021;-68
2021/03/17 01:52:42;;;;;;;5.38;3.28;;;3.70;99.90;;;;;;5051577;28;20031;-68
2021/03/17 01:55:09;;;;;;;4.03;3.35;;;3.70;99.90;;;;;;5052906;28;20100;-68
2021/03/17 01:57:35;;;;;;;4.00;3.38;;;3.70;99.90;;;;;;5053094;28;20029;-67
2021/03/17 02:00:07;;;;;;;3.40;3.10;;;3.70;99.90;;;;;;5052450;28;20021;-67
2021/03/17 02:02:35;;;;;;;5.40;3.95;;;3.70;99.90;;;;;;5030513;28;20527;-68
2021/03/17 02:05:01;;;;;;;5.60;3.53;;;3.60;99.90;;;;;;5032763;28;20180;-67
2021/03/17 02:07:26;;;;;;;3.90;3.45;;;3.60;99.90;;;;;;5033314;28;20064;-68
2021/03/17 02:09:52;;;;;;;5.30;3.95;;;3.60;99.90;;;;;;5032623;28;20022;-67
2021/03/17 02:12:34;;;;;;;4.50;3.83;;;3.60;99.90;;;;;;5031844;28;20452;-68
2021/03/17 02:15:19;;;;;;;3.50;3.20;;;3.70;99.90;;;;;;5031841;28;20052;-67
2021/03/17 02:17:48;;;;;;;6.05;3.67;;;3.60;99.90;;;;;;5033584;28;20037;-67
2021/03/17 02:20:37;;;;;;;4.20;3.80;;;3.60;99.90;;;;;;5041131;28;20039;-69
2021/03/17 02:23:28;;;;;;;4.65;3.83;;;3.60;99.90;;;;;;5051849;28;20032;-68
2021/03/17 02:26:35;;;;;;;6.05;4.30;;;3.70;99.90;;;;;;5055742;28;20082;-68
2021/03/17 02:29:23;;;;;;;4.90;4.18;;;3.70;99.90;;;;;;5068016;28;20032;-69
2021/03/17 02:32:07;;;;;;;6.55;4.95;;;3.70;99.90;;;;;;5046792;28;20030;-67
2021/03/17 02:34:41;;;;;;;5.88;4.28;;;3.70;99.90;;;;;;5055575;28;20035;-68
2021/03/17 02:37:10;;;;;;;6.45;4.30;;;3.80;99.90;;;;;;5053373;28;20028;-68
2021/03/17 02:40:02;;;;;;;5.85;4.22;;;3.70;99.90;;;;;;5046346;28;20034;-70
2021/03/17 02:42:40;;;;;;;4.95;4.47;;;3.80;99.90;;;;;;5040555;28;20029;-69
2021/03/17 02:45:10;;;;;;;5.20;4.70;;;3.80;99.90;;;;;;5058918;28;20075;-69
2021/03/17 02:47:52;;;;;;;6.88;5.25;;;3.80;99.90;;;;;;5056523;28;20029;-67
2021/03/17 02:50:18;;;;;;;;;;;3.70;99.90;;;;;;5032601;28;20032;-67
2021/03/17 02:52:49;;;;;;;8.15;5.40;;;3.70;99.90;;;;;;5031511;28;19905;-68
2021/03/17 02:55:16;;;;;;;8.57;5.30;;;3.70;99.90;;;;;;5031950;28;20033;-68
2021/03/17 02:57:44;;;;;;;7.05;5.35;;;3.70;99.90;;;;;;5031376;28;20026;-68
2021/03/17 03:00:13;;;;;;;5.70;5.18;;;3.80;99.90;;;;;;5032065;28;20053;-67
2021/03/17 03:02:43;;;;;;;6.32;5.00;;;3.70;99.90;;;;;;5034703;28;20025;-68
2021/03/17 03:05:12;;;;;;;6.65;5.63;;;3.80;99.90;;;;;;5050921;28;20112;-69
2021/03/17 03:07:39;;;;;;;7.68;5.18;;;3.60;99.90;;;;;;5050893;28;20548;-69
2021/03/17 03:10:08;;;;;;;6.60;5.07;;;3.60;99.90;;;;;;5050667;28;20036;-68
2021/03/17 03:12:36;;;;;;;7.75;5.57;;;3.70;99.90;;;;;;5030572;28;20024;-69
2021/03/17 03:15:04;;;;;;;5.90;5.10;;;3.70;99.90;;;;;;5030627;28;20392;-67
2021/03/17 03:17:32;;;;;;;6.53;5.20;;;3.90;99.90;;;;;;5031073;28;20083;-69
2021/03/17 03:19:59;;;;;;;5.80;4.50;;;3.90;99.90;;;;;;5036039;28;20082;-68
2021/03/17 03:22:27;;;;;;;7.55;5.63;;;3.70;99.90;;;;;;5049331;28;20589;-68
2021/03/17 03:24:55;;;;;;;5.85;4.85;;;3.50;99.90;;;;;;5050238;28;20032;-69
2021/03/17 03:27:22;;;;;;;5.45;4.90;;;3.50;99.90;;;;;;5050689;28;20024;-69
2021/03/17 03:29:48;;;;;;;6.45;5.38;;;3.50;99.90;;;;;;5050760;28;20392;-69
2021/03/17 03:32:14;;;;;;;6.50;5.78;;;3.40;99.90;;;;;;5050318;28;20021;-67
2021/03/17 03:34:40;;;;;;;6.25;5.65;;;3.40;99.90;;;;;;5050291;28;20076;-69
2021/03/17 03:37:07;;;;;;;5.88;5.13;;;3.40;99.90;;;;;;5050317;28;20543;-68
2021/03/17 03:39:33;;;;;;;7.30;6.05;;;3.30;99.90;;;;;;5051345;28;20036;-69
2021/03/17 03:41:59;;;;;;;10.57;6.03;;;3.20;99.90;;;;;;5054693;28;20021;-69
2021/03/17 03:44:24;;;;;;;8.25;6.00;;;3.20;99.90;;;;;;5054011;28;20082;-68
2021/03/17 03:46:50;;;;;;;5.78;5.15;;;3.20;99.90;;;;;;5057122;28;20068;-67
2021/03/17 03:49:16;;;;;;;7.07;5.25;;;3.20;99.90;;;;;;5058622;28;20032;-70
2021/03/17 03:51:47;;;;;;;7.72;5.63;;;3.20;99.90;;;;;;5058744;28;20491;-68
2021/03/17 03:54:27;;;;;;;6.35;5.32;;;3.20;99.90;;;;;;5054958;28;20027;-68
2021/03/17 03:57:04;;;;;;;9.23;6.15;;;3.30;99.90;;;;;;5053859;28;20032;-69
2021/03/17 03:59:35;;;;;;;8.13;6.38;;;3.20;99.90;;;;;;5054123;28;20036;-69
2021/03/17 04:02:02;;;;;;;8.80;6.63;;;3.20;99.90;;;;;;5054115;28;20028;-68
2021/03/17 04:04:31;;;;;;;8.75;6.72;;;3.30;99.90;;;;;;5053536;28;20159;-67
2021/03/17 04:07:02;;;;;;;7.93;6.68;;;3.30;99.90;;;;;;5052222;28;20017;-70
2021/03/17 04:09:35;;;;;;;9.32;6.55;;;3.30;99.90;;;;;;5054239;28;20028;-68
2021/03/17 04:12:03;;;;;;;7.45;6.45;;;3.20;99.90;;;;;;5054274;28;20471;-69
2021/03/17 04:14:31;;;;;;;7.40;6.13;;;3.10;99.90;;;;;;5052678;28;20036;-66
2021/03/17 04:17:02;;;;;;;8.30;6.45;;;3.10;99.90;;;;;;5053911;28;20051;-68
2021/03/17 04:19:31;;;;;;;7.53;6.13;;;3.00;99.90;;;;;;5053917;28;20037;-69
2021/03/17 04:21:58;;;;;;;8.60;5.95;;;3.00;99.90;;;;;;5053989;28;20262;-67
2021/03/17 04:24:26;;;;;;;6.65;5.93;;;2.90;99.90;;;;;;5050933;28;20025;-69
2021/03/17 04:26:54;;;;;;;7.22;6.22;;;2.80;99.90;;;;;;5053702;28;20013;-69
2021/03/17 04:29:22;;;;;;;8.25;6.25;;;2.90;99.90;;;;;;5044850;28;20072;-68
2021/03/17 04:31:50;;;;;;;7.78;6.35;;;2.80;99.90;;;;;;5033789;28;20024;-70
2021/03/17 04:34:17;;;;;;;9.32;7.45;;;3.00;99.90;;;;;;5040106;28;20025;-68
2021/03/17 04:36:44;;;;;;;9.77;7.28;;;3.00;99.90;;;;;;5053997;28;20029;-69
2021/03/17 04:39:10;;;;;;;10.40;8.07;;;3.10;99.90;;;;;;5053479;28;20032;-67
2021/03/17 04:41:37;;;;;;;8.90;7.32;;;3.10;99.90;;;;;;5054299;28;20438;-67
2021/03/17 04:44:03;;;;;;;9.25;7.35;;;3.20;99.90;;;;;;5053021;28;20436;-68
2021/03/17 04:46:29;;;;;;;9.73;7.28;;;3.20;99.90;;;;;;5054731;28;20064;-69
2021/03/17 04:48:56;;;;;;;7.80;6.90;;;3.20;99.90;;;;;;5055599;28;20037;-68
2021/03/17 04:51:22;;;;;;;9.68;7.70;;;3.20;99.90;;;;;;5056629;28;20427;-69
2021/03/17 04:53:48;;;;;;;7.82;6.63;;;3.30;99.90;;;;;;5055346;28;20155;-69
2021/03/17 04:56:15;;;;;;;11.02;7.75;;;3.30;99.90;;;;;;5053439;28;20068;-68
2021/03/17 04:58:42;;;;;;;8.82;7.40;;;3.40;99.90;;;;;;5050645;28;20021;-68
2021/03/17 05:01:09;;;;;;;10.40;7.70;;;3.30;99.90;;;;;;5033387;28;20029;-70
2021/03/17 05:03:37;;;;;;;8.25;7.45;;;3.40;99.90;;;;;;5032279;28;20124;-68
2021/03/17 05:06:05;;;;;;;9.07;7.32;;;3.40;99.90;;;;;;5032821;28;20036;-67
2021/03/17 05:08:31;;;;;;;9.93;7.00;;;3.40;99.90;;;;;;5033300;28;20034;-69
2021/03/17 05:10:58;;;;;;;10.75;7.75;;;3.30;99.90;;;;;;5033430;28;20049;-68
2021/03/17 05:13:24;;;;;;;9.25;7.55;;;3.30;99.90;;;;;;5040866;28;20134;-70
2021/03/17 05:15:51;;;;;;;10.90;7.90;;;3.50;99.90;;;;;;5053044;28;20025;-69
2021/03/17 05:18:18;;;;;;;9.88;7.78;;;3.40;99.90;;;;;;5052401;28;20025;-67
2021/03/17 05:20:50;;;;;;;9.40;6.97;;;3.30;99.90;;;;;;5052917;28;20033;-68
2021/03/17 05:23:17;;;;;;;11.20;7.13;;;3.30;99.90;;;;;;5052349;28;20037;-69
2021/03/17 05:25:45;;;;;;;11.40;8.50;;;3.30;99.90;;;;;;5045761;28;20075;-70
2021/03/17 05:28:14;;;;;;;9.75;7.90;;;3.30;99.90;;;;;;5041758;28;20030;-69
2021/03/17 05:30:41;;;;;;;10.00;8.32;;;3.30;99.90;;;;;;5044720;28;20017;-70
2021/03/17 05:33:11;;;;;;;10.73;8.20;;;3.40;99.90;;;;;;5065131;28;20089;-71
2021/03/17 05:35:38;;;;;;;12.25;8.18;;;3.50;99.90;;;;;;5063826;28;20021;-69
2021/03/17 05:38:05;;;;;;;12.00;8.57;;;3.50;99.90;;;;;;5065918;28;20029;-68
2021/03/17 05:40:32;;;;;;;14.40;9.88;;;3.50;99.90;;;;;;5068586;28;20025;-69
2021/03/17 05:43:08;;;;;;;12.23;9.02;;;3.50;99.90;;;;;;5074114;28;20108;-70
2021/03/17 05:45:36;;;;;;;12.77;8.57;;;3.50;99.90;;;;;;5072715;28;20040;-69
2021/03/17 05:48:04;;;;;;;12.07;9.18;;;3.50;99.90;;;;;;5068799;28;20028;-70
2021/03/17 05:50:36;;;;;;;12.52;9.40;;;3.50;99.90;;;;;;5071339;28;20037;-70
2021/03/17 05:53:06;;;;;;;13.23;8.82;;;3.50;99.90;;;;;;5050631;28;20024;-70
2021/03/17 05:55:32;;;;;;;12.05;7.97;;;3.40;99.90;;;;;;5047981;28;20052;-68
2021/03/17 05:57:58;;;;;;;10.52;8.80;;;3.40;99.90;;;;;;5037679;28;20064;-67
2021/03/17 06:00:24;;;;;;;10.73;8.90;;;3.40;99.90;;;;;;5034049;28;20029;-69
2021/03/17 06:02:50;;;;;;;10.73;8.27;;;3.50;99.90;;;;;;5031525;28;20021;-71
2021/03/17 06:05:19;;;;;;;12.27;9.45;;;3.50;99.90;;;;;;5041486;28;20028;-69
2021/03/17 06:07:53;;;;;;;12.57;9.38;;;3.60;99.90;;;;;;5053256;28;20053;-68
2021/03/17 06:10:19;;;;;;;12.65;9.45;;;3.60;99.90;;;;;;5054281;28;20077;-72
2021/03/17 06:12:49;;;;;;;14.63;10.88;;;3.60;99.90;;;;;;5052594;28;20032;-68
2021/03/17 06:15:21;;;;;;;13.02;10.23;;;3.60;99.90;;;;;;5053800;28;20021;-69
2021/03/17 06:17:52;;;;;;;15.32;10.43;;;3.70;99.90;;;;;;5053936;28;20088;-68
2021/03/17 06:20:19;;;;;;;12.73;10.35;;;3.70;99.90;;;;;;5054816;28;20049;-68
2021/03/17 06:22:44;;;;;;;15.07;10.45;;;3.90;99.90;;;;;;5060715;28;20039;-67
2021/03/17 06:25:11;;;;;;;14.38;10.48;;;4.10;99.90;;;;;;5067293;28;20089;-68
2021/03/17 06:27:37;;;;;;;14.77;10.05;;;4.20;99.90;;;;;;5064312;28;20111;-66
2021/03/17 06:30:07;;;;;;;11.15;9.07;;;4.60;99.90;;;;;;5058333;28;20032;-66
2021/03/17 06:32:34;;;;;;;14.88;9.10;;;4.50;99.90;;;;;;5063343;28;20048;-66
2021/03/17 06:35:00;;;;;;;14.23;9.98;;;4.50;99.90;;;;;;5070634;28;20013;-66
2021/03/17 06:37:39;;;;;;;11.95;9.88;;;4.40;99.90;;;;;;5069863;28;20021;-66
2021/03/17 06:40:25;;;;;;;12.00;9.32;;;4.40;99.90;;;;;;5057180;28;20020;-67
2021/03/17 06:42:53;;;;;;;11.48;8.70;;;4.30;99.90;;;;;;5041370;28;20022;-66
2021/03/17 06:45:33;;;;;;;11.48;9.32;;;4.20;99.90;;;;;;5037967;28;20032;-68
2021/03/17 06:48:24;;;;;;;13.25;10.00;;;4.10;99.90;;;;;;5054851;28;20018;-68
2021/03/17 06:51:08;;;;;;;13.75;10.23;;;4.10;99.90;;;;;;5045061;28;20029;-68
2021/03/17 06:53:51;;;;;;;17.73;10.82;;;4.10;99.90;;;;;;5045490;28;20045;-68
2021/03/17 06:56:29;;;;;;;14.40;11.32;;;4.20;99.90;;;;;;5064611;28;20052;-68
2021/03/17 06:59:07;;;;;;;16.83;11.70;;;4.20;99.90;;;;;;5050123;28;20051;-69
2021/03/17 07:01:42;;;;;;;17.02;11.00;;;4.30;99.90;;;;;;5043583;28;20112;-67
2021/03/17 07:04:09;;;;;;;14.65;10.50;;;4.30;99.90;;;;;;5048459;28;20032;-66
2021/03/17 07:06:40;;;;;;;17.05;11.35;;;4.40;99.90;;;;;;5054645;28;20024;-66
2021/03/17 07:09:20;;;;;;;15.63;11.63;;;4.40;99.90;;;;;;5053807;28;20109;-67
2021/03/17 07:11:51;;;;;;;18.60;11.77;;;4.50;99.90;;;;;;5058581;28;20035;-67
2021/03/17 07:14:25;;;;;;;14.52;11.50;;;4.60;99.90;;;;;;5054745;28;20095;-67
2021/03/17 07:16:51;;;;;;;15.57;12.23;;;4.40;99.90;;;;;;5042853;28;20025;-66
2021/03/17 07:19:38;;;;;;;18.00;12.43;;;4.40;99.90;;;;;;5046507;28;20029;-65
2021/03/17 07:22:12;;;;;;;16.55;13.82;;;4.60;99.90;;;;;;5053108;28;20028;-68
2021/03/17 07:24:40;;;;;;;14.18;11.23;;;4.60;99.90;;;;;;5052155;28;20116;-66
2021/03/17 07:27:16;;;;;;;18.77;14.40;;;4.50;99.90;;;;;;5052527;28;20451;-67
2021/03/17 07:29:43;;;;;;;27.65;17.42;;;4.60;99.90;;;;;;5051924;28;20025;-67
2021/03/17 07:32:09;;;;;;;53.72;33.58;;;4.60;99.90;;;;;;5050987;28;20109;-67
2021/03/17 07:34:35;;;;;;;30.58;20.45;;;4.60;99.90;;;;;;5053273;28;20068;-67
2021/03/17 07:37:06;;;;;;;23.08;16.50;;;4.50;99.90;;;;;;5052661;28;20506;-66
2021/03/17 07:39:31;;;;;;;20.02;15.27;;;4.40;99.90;;;;;;5053976;28;20395;-63
2021/03/17 07:41:59;;;;;;;31.67;23.30;;;4.40;99.90;;;;;;5053262;28;20029;-65
2021/03/17 07:44:26;;;;;;;27.02;18.77;;;4.40;99.90;;;;;;5034674;28;20250;-66
2021/03/17 07:47:00;;;;;;;23.48;16.48;;;4.50;99.90;;;;;;5034100;28;20047;-66
2021/03/17 07:49:28;;;;;;;25.80;20.58;;;4.60;99.90;;;;;;5052309;28;20025;-66
2021/03/17 07:51:56;;;;;;;26.08;17.83;;;4.50;99.90;;;;;;5053450;28;20029;-66
2021/03/17 07:54:48;;;;;;;22.20;16.42;;;4.40;99.90;;;;;;5053311;28;20025;-65
2021/03/17 07:57:15;;;;;;;19.45;14.85;;;4.40;99.90;;;;;;5053401;28;20057;-66
2021/03/17 07:59:41;;;;;;;22.90;15.88;;;4.50;99.90;;;;;;5053186;28;20045;-67
2021/03/17 08:02:09;;;;;;;22.95;15.85;;;4.50;99.90;;;;;;5053089;28;20097;-66
2021/03/17 08:04:35;;;;;;;21.75;15.95;;;4.70;99.90;;;;;;5052668;28;20279;-65
2021/03/17 08:07:03;;;;;;;19.77;14.30;;;4.90;99.90;;;;;;5055966;28;20026;-65
2021/03/17 08:09:30;;;;;;;17.13;13.13;;;5.10;99.90;;;;;;5055004;28;20029;-67
2021/03/17 08:11:59;;;;;;;18.17;12.55;;;5.40;99.90;;;;;;5055538;28;20021;-67
2021/03/17 08:14:26;;;;;;;18.75;12.50;;;5.30;99.90;;;;;;5052281;28;20056;-65
2021/03/17 08:16:52;;;;;;;14.93;11.77;;;5.30;99.90;;;;;;5052490;28;20033;-67
2021/03/17 08:19:28;;;;;;;14.23;11.20;;;5.60;99.90;;;;;;5052520;28;20032;-65
2021/03/17 08:21:57;;;;;;;18.27;12.60;;;5.70;99.90;;;;;;5052372;28;20017;-66
2021/03/17 08:24:41;;;;;;;22.05;13.73;;;5.50;99.90;;;;;;5051770;28;20372;-66
2021/03/17 08:27:06;;;;;;;18.92;12.98;;;5.60;99.90;;;;;;5061234;28;20040;-66
2021/03/17 08:29:38;;;;;;;14.40;10.32;;;5.50;99.90;;;;;;5068736;28;20025;-66
2021/03/17 08:32:05;;;;;;;;;;;5.40;99.90;;;;;;5066386;28;20460;-67
2021/03/17 08:34:32;;;;;;;14.77;11.15;;;5.50;99.90;;;;;;5056689;28;20014;-66
2021/03/17 08:37:03;;;;;;;17.95;12.70;;;5.50;99.90;;;;;;5056322;28;20105;-65
2021/03/17 08:39:32;;;;;;;18.35;11.95;;;5.70;99.90;;;;;;5054973;28;20094;-65
2021/03/17 08:42:06;;;;;;;23.25;15.50;;;5.70;99.90;;;;;;5055592;28;20025;-65
2021/03/17 08:44:43;;;;;;;17.95;11.88;;;5.60;99.90;;;;;;5055018;28;20031;-65
2021/03/17 08:47:30;;;;;;;16.98;11.55;;;5.60;99.90;;;;;;5056109;28;20021;-65
2021/03/17 08:49:58;;;;;;;13.13;10.25;;;5.80;99.90;;;;;;5056040;28;20036;-66
2021/03/17 08:52:38;;;;;;;13.52;10.27;;;5.80;99.90;;;;;;5055613;28;20067;-68
2021/03/17 08:55:09;;;;;;;14.35;11.00;;;5.60;99.90;;;;;;5055479;28;20032;-68
2021/03/17 08:58:08;;;;;;;13.20;10.55;;;5.40;99.90;;;;;;5055982;28;20039;-70
2021/03/17 09:00:56;;;;;;;16.15;11.52;;;5.50;99.90;;;;;;5054442;28;20033;-68
2021/03/17 09:03:31;;;;;;;11.60;9.27;;;5.50;99.90;;;;;;5053065;28;20107;-67
2021/03/17 09:06:17;;;;;;;15.32;10.60;;;5.40;99.90;;;;;;5055640;28;20022;-68
2021/03/17 09:08:57;;;;;;;13.48;10.35;;;5.80;99.90;;;;;;5060083;28;20482;-70
2021/03/17 09:11:28;;;;;;;12.60;9.95;;;5.80;99.90;;;;;;5054758;28;20020;-66
2021/03/17 09:13:55;;;;;;;13.52;10.23;;;6.00;99.90;;;;;;5055811;28;20021;-67
2021/03/17 09:16:21;;;;;;;13.18;10.65;;;5.60;99.90;;;;;;5055073;28;20044;-67
2021/03/17 09:19:11;;;;;;;13.70;10.63;;;5.80;99.90;;;;;;5041470;28;20030;-68
2021/03/17 09:21:39;;;;;;;16.40;10.25;;;6.20;99.90;;;;;;5036304;28;20053;-66
2021/03/17 09:24:32;;;;;;;12.65;8.98;;;6.40;99.90;;;;;;5044379;28;20029;-67
2021/03/17 09:27:08;;;;;;;11.10;9.02;;;6.50;99.90;;;;;;5055246;28;20025;-66
2021/03/17 09:29:36;;;;;;;12.13;8.93;;;6.60;99.90;;;;;;5055164;28;20079;-68
2021/03/17 09:32:02;;;;;;;11.45;7.60;;;6.80;99.90;;;;;;5055104;28;20033;-68
2021/03/17 09:34:33;;;;;;;12.48;8.60;;;8.10;99.90;;;;;;5054685;28;20036;-68
2021/03/17 09:37:06;;;;;;;10.40;8.35;;;9.20;99.90;;;;;;5053850;28;20115;-68
2021/03/17 09:39:34;;;;;;;7.57;6.53;;;9.80;99.90;;;;;;5053450;28;20109;-68
2021/03/17 09:42:00;;;;;;;8.60;7.15;;;10.30;99.90;;;;;;5034749;28;20029;-67
2021/03/17 09:44:25;;;;;;;11.15;6.90;;;13.40;99.90;;;;;;5050779;28;20033;-67
2021/03/17 09:46:52;;;;;;;8.85;7.20;;;15.00;98.00;;;;;;5053890;28;20033;-67
2021/03/17 09:49:27;;;;;;;10.35;6.05;;;14.40;95.90;;;;;;5053885;28;20021;-67
2021/03/17 09:51:58;;;;;;;6.10;5.15;;;16.60;91.50;;;;;;5054040;28;20155;-67
2021/03/17 09:54:27;;;;;;;5.93;5.07;;;17.30;88.30;;;;;;5053420;28;20068;-68
2021/03/17 09:56:56;;;;;;;5.80;4.97;;;18.80;76.10;;;;;;5053591;28;20029;-68
2021/03/17 09:59:27;;;;;;;28.55;21.83;;;18.40;71.50;;;;;;5053885;28;20037;-67
2021/03/17 10:01:58;;;;;;;6.72;4.25;;;15.60;78.70;;;;;;5051984;28;20029;-67
2021/03/17 10:04:42;;;;;;;4.95;3.90;;;14.30;83.60;;;;;;5057374;28;20029;-68
2021/03/17 10:07:29;;;;;;;4.95;4.30;;;15.90;83.10;;;;;;5053300;28;20017;-68
2021/03/17 10:09:56;;;;;;;5.53;3.97;;;15.30;80.40;;;;;;5053164;28;20045;-68
2021/03/17 10:12:27;;;;;;;5.68;5.05;;;13.30;83.40;;;;;;5052166;28;20096;-68
2021/03/17 10:14:59;;;;;;;5.50;4.20;;;12.30;87.80;;;;;;5052349;28;20040;-69
2021/03/17 10:17:30;;;;;;;5.93;3.97;;;11.70;90.50;;;;;;5055572;28;20064;-67
2021/03/17 10:19:58;;;;;;;4.70;3.88;;;11.00;91.30;;;;;;5055383;28;20029;-67
2021/03/17 10:22:27;;;;;;;4.38;3.97;;;10.40;92.20;;;;;;5060060;28;20028;-69
2021/03/17 10:24:55;;;;;;;5.78;3.80;;;9.10;94.60;;;;;;5053874;28;20376;-67
2021/03/17 10:27:32;;;;;;;10.10;8.18;;;8.30;97.60;;;;;;5062686;28;20027;-68
2021/03/17 10:30:07;;;;;;;4.10;3.60;;;8.50;97.80;;;;;;5062501;28;20013;-68
2021/03/17 10:32:36;;;;;;;6.40;3.70;;;8.30;99.20;;;;;;5063454;28;20017;-67
2021/03/17 10:35:08;;;;;;;5.10;3.80;;;8.20;98.70;;;;;;5073715;28;20035;-68
2021/03/17 10:37:34;;;;;;;4.25;3.55;;;8.10;99.50;;;;;;5066784;28;20036;-68
2021/03/17 10:40:07;;;;;;;4.20;3.65;;;7.30;99.90;;;;;;5057555;28;20025;-68
2021/03/17 10:42:33;;;;;;;6.70;3.30;;;7.30;99.90;;;;;;5055445;28;20033;-67
2021/03/17 10:45:11;;;;;;;4.35;3.35;;;7.40;99.90;;;;;;5033599;28;20037;-68
2021/03/17 10:47:38;;;;;;;5.30;3.33;;;8.80;99.90;;;;;;5034910;28;20028;-67
2021/03/17 10:50:10;;;;;;;5.30;2.58;;;10.70;96.50;;;;;;5035314;28;20021;-68
2021/03/17 10:52:55;;;;;;;4.35;3.20;;;14.00;93.30;;;;;;5035649;28;20025;-69
2021/03/17 10:55:30;;;;;;;3.97;2.55;;;18.20;75.80;;;;;;5035458;28;20049;-68
2021/03/17 10:58:14;;;;;;;5.60;2.08;;;21.00;64.80;;;;;;5035362;28;20037;-67
2021/03/17 11:00:41;;;;;;;2.67;2.25;;;19.70;60.50;;;;;;5037790;28;20083;-69
2021/03/17 11:03:25;;;;;;;3.60;2.63;;;19.20;59.60;;;;;;5054796;28;20036;-67
2021/03/17 11:06:10;;;;;;;4.80;2.40;;;17.90;58.80;;;;;;5059036;28;20029;-67
2021/03/17 11:08:36;;;;;;;4.60;2.70;;;18.90;63.30;;;;;;5074666;28;20025;-68
2021/03/17 11:11:09;;;;;;;4.35;2.90;;;19.00;57.80;;;;;;5071856;28;20040;-73
2021/03/17 11:13:49;;;;;;;5.70;3.13;;;17.40;62.30;;;;;;5064764;28;20224;-71
2021/03/17 11:16:20;;;;;;;4.28;2.70;;;15.50;72.70;;;;;;5074425;28;20055;-67
2021/03/17 11:18:53;;;;;;;4.25;2.78;;;15.80;71.60;;;;;;5062260;28;20037;-67
2021/03/17 11:21:26;;;;;;;3.28;2.05;;;16.50;63.30;;;;;;5062707;28;20033;-68
2021/03/17 11:23:54;;;;;;;3.90;2.60;;;17.30;61.60;;;;;;5063200;28;20033;-67
2021/03/17 11:26:31;;;;;;;6.28;2.50;;;17.50;60.50;;;;;;5058487;28;20021;-68
2021/03/17 11:29:02;;;;;;;2.92;2.28;;;16.60;62.60;;;;;;5054083;28;20676;-67
2021/03/17 11:31:33;;;;;;;4.95;2.17;;;14.60;66.30;;;;;;5053256;28;20599;-68
2021/03/17 11:34:00;;;;;;;2.05;1.95;;;13.60;69.40;;;;;;5054018;28;20460;-67
2021/03/17 11:36:27;;;;;;;2.97;2.30;;;13.00;71.80;;;;;;5054109;28;20685;-67
2021/03/17 11:38:53;;;;;;;2.60;2.40;;;12.50;74.40;;;;;;5055234;28;20100;-67
2021/03/17 11:41:19;;;;;;;2.95;2.45;;;12.20;77.60;;;;;;5036736;28;20036;-69
2021/03/17 11:43:46;;;;;;;3.80;2.33;;;11.80;77.80;;;;;;5053858;28;20040;-68
2021/03/17 11:46:12;;;;;;;3.25;2.33;;;10.60;80.10;;;;;;5053793;28;20108;-68
2021/03/17 11:48:38;;;;;;;6.15;2.70;;;10.80;80.50;;;;;;5054830;28;20025;-68
2021/03/17 11:51:06;;;;;;;6.57;2.33;;;10.50;82.50;;;;;;5054700;28;20025;-67
2021/03/17 11:53:34;;;;;;;5.40;2.72;;;10.80;80.50;;;;;;5055679;28;20132;-68
2021/03/17 11:56:00;;;;;;;3.53;2.22;;;10.80;82.40;;;;;;5055554;28;20552;-68
2021/03/17 11:58:25;;;;;;;4.30;2.60;;;11.00;82.20;;;;;;5052726;28;20112;-67
2021/03/17 12:00:51;;;;;;;4.38;2.45;;;10.90;82.00;;;;;;5053763;28;20083;-68
2021/03/17 12:03:17;;;;;;;3.83;2.20;;;10.70;83.00;;;;;;5055923;28;20499;-68
2021/03/17 12:05:43;;;;;;;3.60;2.40;;;10.90;83.10;;;;;;5057367;28;20075;-67
2021/03/17 12:08:11;;;;;;;2.22;2.03;;;10.80;82.40;;;;;;5063094;28;20021;-68
2021/03/17 12:10:36;;;;;;;3.70;2.17;;;10.50;84.00;;;;;;5068425;28;20119;-69
2021/03/17 12:13:03;;;;;;;4.80;2.35;;;10.20;84.30;;;;;;5053729;28;20040;-68
2021/03/17 12:15:29;;;;;;;5.35;2.60;;;10.00;86.20;;;;;;5060073;28;20032;-68
2021/03/17 12:17:56;;;;;;;6.03;2.13;;;9.80;88.80;;;;;;5057381;28;20079;-68
2021/03/17 12:20:24;;;;;;;2.63;2.25;;;9.60;89.00;;;;;;5039362;28;20025;-68
2021/03/17 12:22:51;;;;;;;4.20;2.25;;;8.80;89.80;;;;;;5037535;28;20045;-67
2021/03/17 12:25:16;;;;;;;3.47;2.50;;;8.50;92.10;;;;;;5037051;28;20061;-67
2021/03/17 12:27:43;;;;;;;4.40;2.42;;;8.10;90.90;;;;;;5035605;28;20480;-69
2021/03/17 12:30:11;;;;;;;3.55;2.25;;;8.00;91.60;;;;;;5039873;28;20047;-68
2021/03/17 12:32:38;;;;;;;7.30;2.60;;;8.00;93.00;;;;;;5055089;28;20039;-68
2021/03/17 12:35:09;;;;;;;3.97;2.30;;;7.90;92.70;;;;;;5055063;28;20115;-68
2021/03/17 12:37:36;;;;;;;5.40;2.45;;;7.70;93.70;;;;;;5055169;28;20021;-68
2021/03/17 12:40:03;;;;;;;7.05;2.25;;;7.60;93.50;;;;;;5053905;28;20032;-67
2021/03/17 12:42:29;;;;;;;3.40;2.20;;;7.60;94.60;;;;;;5055634;28;20455;-68
2021/03/17 12:44:54;;;;;;;2.40;2.03;;;7.40;96.80;;;;;;5038886;28;20034;-68
2021/03/17 12:47:20;;;;;;;6.30;2.50;;;7.50;97.40;;;;;;5037749;28;20021;-68
2021/03/17 12:49:46;;;;;;;4.47;2.42;;;7.60;98.80;;;;;;5035454;28;20499;-68
2021/03/17 12:52:11;;;;;;;2.88;2.30;;;7.40;99.50;;;;;;5035146;28;20159;-68
2021/03/17 12:54:37;;;;;;;3.38;2.50;;;7.20;99.90;;;;;;5035893;28;20036;-68
2021/03/17 12:57:04;;;;;;;4.20;2.55;;;7.00;99.90;;;;;;5055565;28;20033;-69
2021/03/17 12:59:30;;;;;;;5.93;3.05;;;6.90;99.90;;;;;;5054491;28;20029;-68
2021/03/17 13:01:56;;;;;;;5.20;2.50;;;6.40;99.90;;;;;;5055560;28;20098;-67
2021/03/17 13:04:21;;;;;;;4.68;3.08;;;6.00;99.90;;;;;;5053859;28;20053;-69